createdAt,value
2023-04-04T00:01:00.099Z,6.50
2023-04-04T00:04:03.023Z,3.10
2023-04-04T00:07:05.706Z,3.37
2023-04-04T00:10:08.606Z,3.30
2023-04-04T00:13:12.133Z,4.32
2023-04-04T00:16:14.761Z,5.40
2023-04-04T00:19:18.374Z,4.43
2023-04-04T00:22:20.808Z,4.47
2023-04-04T00:25:23.238Z,4.13
2023-04-04T00:28:25.738Z,4.55
2023-04-04T00:31:28.244Z,6.18
2023-04-04T00:34:30.662Z,4.40
2023-04-04T00:37:33.181Z,4.35
2023-04-04T00:40:50.397Z,3.47
2023-04-04T00:43:53.098Z,2.75
2023-04-04T00:46:55.433Z,5.53
2023-04-04T00:49:57.926Z,3.38
2023-04-04T00:53:00.447Z,5.65
2023-04-04T00:56:02.876Z,5.45
2023-04-04T00:59:05.255Z,2.78
2023-04-04T01:02:07.705Z,4.07
2023-04-04T01:05:11.220Z,3.58
2023-04-04T01:08:14.368Z,4.05
2023-04-04T01:11:17.054Z,3.90
2023-04-04T01:14:19.619Z,4.40
2023-04-04T01:17:22.453Z,5.43
2023-04-04T01:20:27.028Z,3.15
2023-04-04T01:24:04.682Z,5.85
2023-04-04T01:27:18.929Z,6.45
2023-04-04T01:30:32.831Z,3.75
2023-04-04T01:33:41.517Z,4.72
2023-04-04T01:36:49.582Z,3.50
2023-04-04T01:39:57.568Z,3.10
2023-04-04T01:42:59.953Z,5.85
2023-04-04T01:46:04.690Z,1.98
2023-04-04T01:49:08.306Z,5.65
2023-04-04T01:52:11.348Z,4.40
2023-04-04T01:55:13.808Z,5.72
2023-04-04T01:58:16.502Z,4.25
2023-04-04T02:01:20.020Z,1.90
2023-04-04T02:04:22.518Z,3.33
2023-04-04T02:07:24.958Z,4.15
2023-04-04T02:10:27.740Z,5.13
2023-04-04T02:13:30.135Z,5.43
2023-04-04T02:16:34.726Z,3.75
2023-04-04T02:19:37.437Z,5.25
2023-04-04T02:22:39.768Z,5.07
2023-04-04T02:25:42.053Z,4.47
2023-04-04T02:28:45.160Z,3.50
2023-04-04T02:31:48.083Z,1.83
2023-04-04T02:34:51.182Z,3.80
2023-04-04T02:37:53.446Z,3.40
2023-04-04T02:40:59.777Z,2.88
2023-04-04T02:44:02.212Z,2.17
2023-04-04T02:47:04.647Z,4.00
2023-04-04T02:50:08.157Z,2.50
2023-04-04T02:53:12.520Z,3.60
2023-04-04T02:56:15.063Z,4.68
2023-04-04T02:59:18.292Z,5.65
2023-04-04T03:02:21.097Z,4.20
2023-04-04T03:05:27.163Z,4.05
2023-04-04T03:08:29.643Z,5.88
2023-04-04T03:11:34.597Z,3.17
2023-04-04T03:14:37.665Z,4.38
2023-04-04T03:17:41.459Z,5.22
2023-04-04T03:20:43.914Z,4.45
2023-04-04T03:23:46.448Z,4.07
2023-04-04T03:26:49.084Z,3.72
2023-04-04T03:29:51.512Z,7.57
2023-04-04T03:32:55.468Z,4.43
2023-04-04T03:35:58.364Z,6.18
2023-04-04T03:39:00.880Z,4.45
2023-04-04T03:42:03.279Z,3.42
2023-04-04T03:45:05.920Z,4.15
2023-04-04T03:48:11.391Z,4.00
2023-04-04T03:51:15.211Z,4.70
2023-04-04T03:54:19.810Z,2.35
2023-04-04T03:57:22.218Z,7.05
2023-04-04T04:00:24.925Z,3.65
2023-04-04T04:03:27.603Z,4.45
2023-04-04T04:06:30.390Z,3.80
2023-04-04T04:09:32.724Z,5.60
2023-04-04T04:12:35.026Z,8.63
2023-04-04T04:15:37.891Z,4.53
2023-04-04T04:18:43.532Z,6.90
2023-04-04T04:21:49.498Z,8.23
2023-04-04T04:24:52.669Z,8.38
2023-04-04T04:27:58.974Z,3.92
2023-04-04T04:31:07.622Z,4.20
2023-04-04T04:34:15.867Z,4.93
2023-04-04T04:37:18.750Z,4.50
2023-04-04T04:40:24.562Z,5.70
2023-04-04T04:43:32.617Z,2.50
2023-04-04T04:46:35.565Z,4.25
2023-04-04T04:49:48.286Z,4.18
2023-04-04T04:52:53.601Z,6.32
2023-04-04T04:55:56.157Z,6.20
2023-04-04T04:58:59.088Z,7.20
2023-04-04T05:02:03.398Z,5.93
2023-04-04T05:05:11.049Z,5.00
2023-04-04T05:08:13.578Z,6.47
2023-04-04T05:11:27.835Z,3.35
2023-04-04T05:14:30.628Z,4.10
2023-04-04T05:17:36.516Z,2.80
2023-04-04T05:20:42.497Z,3.65
2023-04-04T05:23:48.713Z,5.53
2023-04-04T05:26:52.844Z,5.45
2023-04-04T05:29:56.806Z,5.90
2023-04-04T05:33:01.459Z,4.82
2023-04-04T05:36:05.868Z,3.50
2023-04-04T05:39:11.466Z,4.95
2023-04-04T05:42:22.027Z,3.60
2023-04-04T05:45:28.479Z,6.47
2023-04-04T05:48:31.776Z,3.97
2023-04-04T05:51:34.421Z,6.13
2023-04-04T05:54:46.548Z,2.90
2023-04-04T05:57:58.193Z,4.80
2023-04-04T06:01:15.245Z,3.15
2023-04-04T06:04:19.267Z,6.68
2023-04-04T06:07:22.419Z,4.75
2023-04-04T06:10:25.755Z,3.63
2023-04-04T06:13:31.349Z,3.40
2023-04-04T06:16:39.560Z,4.50
2023-04-04T06:19:42.009Z,3.92
2023-04-04T06:22:44.279Z,2.90
2023-04-04T06:25:48.403Z,2.65
2023-04-04T06:28:53.610Z,4.32
2023-04-04T06:32:06.126Z,4.25
2023-04-04T06:35:12.163Z,4.40
2023-04-04T06:38:19.636Z,3.20
2023-04-04T06:41:22.037Z,4.80
2023-04-04T06:44:27.418Z,4.88
2023-04-04T06:47:30.514Z,4.20
2023-04-04T06:50:32.940Z,4.82
2023-04-04T06:53:36.692Z,5.18
2023-04-04T06:56:40.531Z,4.93
2023-04-04T06:59:45.012Z,7.45
2023-04-04T07:02:48.081Z,11.40
2023-04-04T07:05:50.890Z,5.30
2023-04-04T07:08:53.595Z,6.82
2023-04-04T07:11:56.427Z,6.68
2023-04-04T07:14:59.103Z,3.55
2023-04-04T07:18:02.114Z,11.00
2023-04-04T07:21:04.937Z,13.87
2023-04-04T07:24:08.158Z,4.22
2023-04-04T07:27:11.371Z,4.30
2023-04-04T07:30:14.365Z,4.00
2023-04-04T07:33:16.798Z,4.40
2023-04-04T07:36:19.254Z,9.35
2023-04-04T07:39:21.696Z,12.13
2023-04-04T07:42:24.309Z,4.45
2023-04-04T07:45:27.109Z,3.42
2023-04-04T07:48:29.647Z,3.13
2023-04-04T07:51:31.981Z,5.35
2023-04-04T07:54:34.447Z,3.20
2023-04-04T07:57:40.261Z,2.78
2023-04-04T08:00:42.557Z,3.42
2023-04-04T08:03:45.202Z,3.80
2023-04-04T08:06:47.788Z,6.80
2023-04-04T08:09:50.567Z,25.58
2023-04-04T08:12:53.473Z,4.18
2023-04-04T08:15:55.804Z,2.28
2023-04-04T08:19:00.115Z,5.00
2023-04-04T08:22:03.078Z,8.88
2023-04-04T08:25:06.119Z,5.50
2023-04-04T08:28:08.875Z,2.83
2023-04-04T08:31:12.688Z,11.77
2023-04-04T08:34:15.155Z,3.53
2023-04-04T08:37:18.434Z,1.63
2023-04-04T08:40:21.094Z,3.65
2023-04-04T08:43:24.358Z,5.72
2023-04-04T08:46:28.130Z,17.33
2023-04-04T08:49:30.911Z,2.28
2023-04-04T08:52:36.626Z,2.72
2023-04-04T08:55:39.627Z,3.33
2023-04-04T08:58:42.014Z,1.50
2023-04-04T09:01:44.423Z,3.42
2023-04-04T09:04:58.161Z,5.32
2023-04-04T09:08:08.289Z,6.72
2023-04-04T09:11:10.963Z,6.05
2023-04-04T09:14:13.767Z,3.85
2023-04-04T09:17:16.231Z,3.72
2023-04-04T09:20:38.875Z,14.77
2023-04-04T09:23:41.380Z,9.02
2023-04-04T09:26:54.169Z,8.48
2023-04-04T09:30:01.877Z,4.20
2023-04-04T09:33:06.740Z,1.33
2023-04-04T09:36:13.004Z,4.97
2023-04-04T09:39:20.273Z,39.55
2023-04-04T09:42:23.408Z,10.98
2023-04-04T09:45:43.733Z,7.73
2023-04-04T09:48:53.792Z,6.40
2023-04-04T09:51:56.178Z,6.97
2023-04-04T09:55:00.203Z,3.88
2023-04-04T10:04:20.060Z,6.60
2023-04-04T10:07:23.672Z,6.43
2023-04-04T10:10:31.469Z,14.05
2023-04-04T10:13:41.091Z,9.07
2023-04-04T10:16:46.159Z,4.45
2023-04-04T10:19:48.656Z,7.28
2023-04-04T10:22:51.831Z,5.47
2023-04-04T10:26:00.400Z,3.93
2023-04-04T10:29:03.932Z,3.35
2023-04-04T10:32:07.851Z,5.78
2023-04-04T10:35:11.802Z,5.32
2023-04-04T10:38:14.480Z,7.22
2023-04-04T10:41:17.578Z,5.95
2023-04-04T10:44:38.967Z,6.30
2023-04-04T10:47:42.063Z,3.80
2023-04-04T10:50:44.433Z,3.10
2023-04-04T10:53:47.008Z,3.50
2023-04-04T10:56:49.948Z,7.50
2023-04-04T11:00:04.850Z,12.30
2023-04-04T11:03:07.372Z,11.52
2023-04-04T11:06:15.569Z,4.30
2023-04-04T11:09:51.309Z,7.72
2023-04-04T11:13:05.695Z,5.15
2023-04-04T11:16:15.956Z,8.85
2023-04-04T11:19:18.330Z,3.08
2023-04-04T11:22:23.982Z,6.25
2023-04-04T11:25:33.183Z,3.70
2023-04-04T11:28:35.540Z,4.18
2023-04-04T11:31:45.283Z,3.17
2023-04-04T11:34:50.683Z,6.32
2023-04-04T11:37:53.642Z,14.15
2023-04-04T11:40:56.876Z,8.02
2023-04-04T11:44:09.487Z,5.13
2023-04-04T11:47:13.666Z,5.82
2023-04-04T11:50:17.075Z,3.92
2023-04-04T11:53:19.508Z,3.60
2023-04-04T11:56:21.993Z,3.05
2023-04-04T11:59:25.365Z,2.17
2023-04-04T12:02:31.825Z,2.35
2023-04-04T12:05:35.351Z,3.50
2023-04-04T12:08:38.770Z,6.23
2023-04-04T12:11:41.102Z,5.43
2023-04-04T12:14:43.960Z,3.55
2023-04-04T12:17:46.530Z,3.53
2023-04-04T12:20:51.283Z,3.08
2023-04-04T12:23:54.258Z,3.63
2023-04-04T12:26:58.548Z,3.10
2023-04-04T12:33:03.664Z,4.53
2023-04-04T12:36:09.444Z,5.50
2023-04-04T12:39:12.505Z,2.63
2023-04-04T12:42:22.398Z,6.70
2023-04-04T12:45:28.111Z,2.35
2023-04-04T12:48:30.552Z,2.97
2023-04-04T12:51:36.542Z,4.38
2023-04-04T12:54:41.754Z,3.47
2023-04-04T12:57:45.763Z,5.95
2023-04-04T13:00:50.390Z,17.83
2023-04-04T13:03:53.494Z,5.13
2023-04-04T13:06:55.949Z,6.32
2023-04-04T13:10:04.829Z,2.38
2023-04-04T13:13:07.371Z,3.17
2023-04-04T13:16:14.726Z,3.45
2023-04-04T13:19:17.171Z,1.67
2023-04-04T13:22:19.658Z,3.50
2023-04-04T13:25:22.144Z,2.20
2023-04-04T13:28:25.208Z,2.78
2023-04-04T13:31:27.973Z,2.97
2023-04-04T13:34:31.111Z,5.60
2023-04-04T13:37:33.600Z,4.72
2023-04-04T13:40:35.944Z,5.03
2023-04-04T13:43:38.285Z,3.97
2023-04-04T13:46:40.803Z,10.07
2023-04-04T13:49:43.422Z,9.50
2023-04-04T13:52:45.895Z,6.43
2023-04-04T13:56:13.189Z,7.07
2023-04-04T13:59:10.835Z,4.20
2023-04-04T14:02:13.370Z,4.68
2023-04-04T14:05:16.331Z,6.20
2023-04-04T14:08:18.677Z,2.17
2023-04-04T14:11:21.886Z,5.25
2023-04-04T14:14:24.233Z,5.30
2023-04-04T14:17:26.585Z,3.72
2023-04-04T14:20:28.969Z,2.83
2023-04-04T14:23:31.741Z,6.15
2023-04-04T14:26:35.158Z,3.38
2023-04-04T14:29:37.740Z,9.30
2023-04-04T14:32:40.223Z,5.50
2023-04-04T14:35:42.980Z,9.35
2023-04-04T14:38:45.705Z,4.60
2023-04-04T14:41:48.378Z,7.47
2023-04-04T14:44:50.887Z,8.57
2023-04-04T14:47:53.349Z,9.23
2023-04-04T14:50:55.692Z,7.88
2023-04-04T14:53:58.382Z,4.80
2023-04-04T14:57:02.281Z,3.25
2023-04-04T15:00:05.052Z,6.72
2023-04-04T15:03:08.427Z,5.18
2023-04-04T15:06:10.857Z,43.22
2023-04-04T15:09:13.296Z,33.90
2023-04-04T15:12:15.853Z,10.57
2023-04-04T15:15:18.303Z,21.23
2023-04-04T15:18:20.681Z,17.73
2023-04-04T15:21:22.970Z,14.40
2023-04-04T15:24:25.690Z,9.38
2023-04-04T15:27:28.424Z,7.22
2023-04-04T15:30:31.845Z,6.80
2023-04-04T15:33:34.258Z,12.82
2023-04-04T15:36:36.806Z,5.72
2023-04-04T15:39:49.623Z,7.18
2023-04-04T15:42:52.318Z,21.15
2023-04-04T15:45:54.826Z,10.38
2023-04-04T15:48:57.372Z,4.57
2023-04-04T15:52:00.039Z,9.02
2023-04-04T15:55:03.094Z,12.82
2023-04-04T15:58:06.197Z,9.13
2023-04-04T16:01:09.069Z,14.20
2023-04-04T16:04:11.587Z,20.92
2023-04-04T16:07:17.838Z,10.65
2023-04-04T16:10:24.538Z,4.43
2023-04-04T16:13:27.676Z,5.15
2023-04-04T16:16:30.081Z,8.55
2023-04-04T16:19:32.412Z,4.72
2023-04-04T16:22:34.775Z,13.00
2023-04-04T16:25:37.161Z,4.47
2023-04-04T16:28:40.353Z,7.28
2023-04-04T16:31:42.810Z,5.57
2023-04-04T16:34:45.424Z,8.82
2023-04-04T16:37:48.088Z,8.57
2023-04-04T16:40:50.708Z,9.77
2023-04-04T16:43:54.680Z,8.02
2023-04-04T16:46:57.182Z,9.45
2023-04-04T16:50:00.038Z,11.73
2023-04-04T16:53:04.140Z,3.33
2023-04-04T16:59:08.675Z,8.80
2023-04-04T17:02:11.290Z,8.48
2023-04-04T17:05:14.580Z,25.42
2023-04-04T17:08:16.858Z,7.30
2023-04-04T17:11:19.265Z,11.93
2023-04-04T17:14:21.651Z,16.35
2023-04-04T17:17:24.213Z,9.98
2023-04-04T17:20:29.535Z,4.30
2023-04-04T17:23:32.694Z,5.78
2023-04-04T17:26:35.015Z,9.85
2023-04-04T17:29:37.448Z,10.15
2023-04-04T17:32:40.082Z,5.05
2023-04-04T17:35:43.178Z,8.55
2023-04-04T17:38:45.778Z,12.30
2023-04-04T17:41:48.313Z,7.93
2023-04-04T17:44:50.702Z,7.03
2023-04-04T17:47:53.058Z,7.18
2023-04-04T17:50:55.402Z,7.68
2023-04-04T17:53:57.765Z,6.63
2023-04-04T17:57:00.415Z,10.90
2023-04-04T18:00:03.154Z,7.15
2023-04-04T18:03:10.358Z,3.85
2023-04-04T18:06:12.939Z,4.47
2023-04-04T18:09:15.329Z,5.22
2023-04-04T18:12:18.212Z,7.50
2023-04-04T18:15:20.772Z,7.57
2023-04-04T18:18:24.937Z,8.90
2023-04-04T18:21:27.676Z,8.95
2023-04-04T18:24:30.152Z,8.68
2023-04-04T18:27:32.527Z,9.85
2023-04-04T18:30:37.328Z,7.07
2023-04-04T18:33:39.941Z,9.70
2023-04-04T18:36:42.365Z,8.20
2023-04-04T18:39:44.711Z,11.95
2023-04-04T18:42:49.041Z,6.53
2023-04-04T18:45:51.411Z,5.25
2023-04-04T18:48:53.888Z,5.63
2023-04-04T18:51:56.352Z,6.00
2023-04-04T18:54:58.839Z,7.18
2023-04-04T18:58:01.216Z,6.00
2023-04-04T19:01:04.394Z,4.97
2023-04-04T19:04:08.826Z,6.95
2023-04-04T19:07:12.139Z,4.95
2023-04-04T19:10:14.751Z,5.53
2023-04-04T19:13:19.845Z,6.10
2023-04-04T19:16:24.171Z,5.80
2023-04-04T19:19:26.569Z,8.20
2023-04-04T19:22:28.980Z,11.38
2023-04-04T19:25:31.441Z,11.20
2023-04-04T19:28:34.106Z,15.00
2023-04-04T19:31:36.625Z,16.23
2023-04-04T19:34:39.032Z,20.80
2023-04-04T19:37:41.486Z,16.92
2023-04-04T19:40:56.842Z,20.15
2023-04-04T19:43:59.199Z,25.75
2023-04-04T19:47:01.557Z,22.77
2023-04-04T19:50:06.965Z,24.70
2023-04-04T19:53:21.834Z,23.35
2023-04-04T19:56:26.160Z,21.02
2023-04-04T19:59:59.260Z,24.42
2023-04-04T20:03:07.825Z,22.63
2023-04-04T20:06:12.352Z,25.33
2023-04-04T20:09:32.183Z,29.42
2023-04-04T20:12:34.512Z,32.65
2023-04-04T20:15:48.857Z,27.10
2023-04-04T20:18:51.765Z,21.20
2023-04-04T20:21:54.031Z,22.02
2023-04-04T20:24:56.455Z,18.55
2023-04-04T20:27:58.774Z,23.65
2023-04-04T20:31:03.638Z,24.05
2023-04-04T20:34:07.525Z,26.05
2023-04-04T20:40:36.441Z,39.83
2023-04-04T20:43:38.872Z,37.13
2023-04-04T20:46:41.252Z,31.60
2023-04-04T20:49:43.614Z,34.80
2023-04-04T20:52:47.365Z,29.55
2023-04-04T20:55:50.737Z,25.52
2023-04-04T20:58:53.222Z,33.22
2023-04-04T21:01:56.439Z,24.20
2023-04-04T21:04:59.037Z,29.20
2023-04-04T21:08:02.461Z,23.05
2023-04-04T21:11:07.173Z,26.75
2023-04-04T21:14:22.033Z,27.58
2023-04-04T21:17:24.924Z,22.48
2023-04-04T21:20:46.258Z,19.83
2023-04-04T21:23:51.106Z,25.10
2023-04-04T21:26:53.815Z,28.30
2023-04-04T21:29:56.379Z,25.48
2023-04-04T21:32:58.741Z,26.38
2023-04-04T21:36:01.302Z,26.13
2023-04-04T21:39:31.395Z,23.55
2023-04-04T21:42:33.826Z,25.63
2023-04-04T21:45:36.167Z,27.20
2023-04-04T21:48:38.582Z,31.70
2023-04-04T21:51:41.116Z,31.67
2023-04-04T21:54:43.703Z,32.05
2023-04-04T21:57:46.315Z,31.92
2023-04-04T22:00:49.050Z,32.10
2023-04-04T22:03:51.372Z,27.88
2023-04-04T22:06:53.764Z,25.45
2023-04-04T22:09:58.829Z,27.30
2023-04-04T22:13:02.054Z,26.92
2023-04-04T22:16:04.787Z,22.10
2023-04-04T22:19:08.175Z,32.00
2023-04-04T22:22:10.551Z,44.55
2023-04-04T22:25:14.030Z,51.08
2023-04-04T22:31:21.016Z,43.58
2023-04-04T22:34:23.501Z,41.95
2023-04-04T22:37:27.556Z,55.63
2023-04-04T22:40:31.763Z,49.00
2023-04-04T22:43:34.102Z,51.25
2023-04-04T22:46:36.947Z,47.65
2023-04-04T22:49:48.435Z,48.38
2023-04-04T22:52:52.461Z,44.30
2023-04-04T22:55:59.921Z,53.63
2023-04-04T22:59:02.264Z,56.45
2023-04-04T23:02:05.620Z,64.00
2023-04-04T23:05:09.001Z,46.47
2023-04-04T23:08:11.364Z,68.90
2023-04-04T23:11:14.129Z,61.35
2023-04-04T23:14:19.639Z,53.63
2023-04-04T23:17:21.966Z,53.97
2023-04-04T23:20:24.841Z,49.80
2023-04-04T23:23:27.161Z,32.90
2023-04-04T23:26:29.502Z,48.10
2023-04-04T23:29:31.790Z,50.83
2023-04-04T23:32:34.327Z,49.25
2023-04-04T23:35:36.701Z,46.15
2023-04-04T23:38:39.015Z,48.42
2023-04-04T23:41:41.435Z,51.63
2023-04-04T23:44:43.757Z,48.03
2023-04-04T23:47:46.223Z,54.47
2023-04-04T23:50:50.277Z,61.40
2023-04-04T23:53:53.267Z,59.95
2023-04-04T23:56:56.231Z,50.50
2023-04-04T23:59:58.557Z,39.00
